createdAt,value
2019-01-11T00:01:40.559Z,97478.66
2019-01-11T00:04:10.047Z,97476.52
2019-01-11T00:06:39.610Z,97478.14
2019-01-11T00:09:09.074Z,97475.14
2019-01-11T00:11:38.522Z,97474.03
2019-01-11T00:14:07.926Z,97478.84
2019-01-11T00:16:37.394Z,97474.61
2019-01-11T00:19:07.251Z,97480.88
2019-01-11T00:21:36.784Z,97481.02
2019-01-11T00:24:06.241Z,97486.55
2019-01-11T00:26:35.751Z,97491.23
2019-01-11T00:29:05.234Z,97492.84
2019-01-11T00:31:34.690Z,97492.72
2019-01-11T00:34:04.184Z,97492.89
2019-01-11T00:36:33.649Z,97494.58
2019-01-11T00:39:03.534Z,97495.22
2019-01-11T00:41:33.016Z,97502.30
2019-01-11T00:44:02.590Z,97507.17
2019-01-11T00:46:32.090Z,97509.14
2019-01-11T00:49:01.884Z,97503.37
2019-01-11T00:51:31.302Z,97516.63
2019-01-11T00:54:00.806Z,97512.73
2019-01-11T00:56:30.315Z,97515.94
2019-01-11T00:58:59.794Z,97519.48
2019-01-11T01:01:29.297Z,97522.84
2019-01-11T01:03:58.777Z,97532.02
2019-01-11T01:06:28.233Z,97526.48
2019-01-11T01:08:57.729Z,97534.41
2019-01-11T01:11:27.294Z,97534.34
2019-01-11T01:13:56.760Z,97547.03
2019-01-11T01:16:26.358Z,97542.42
2019-01-11T01:18:55.821Z,97544.45
2019-01-11T01:21:25.290Z,97544.23
2019-01-11T01:23:54.785Z,97551.72
2019-01-11T01:26:24.377Z,97551.94
2019-01-11T01:28:53.832Z,97554.97
2019-01-11T01:31:23.372Z,97559.69
2019-01-11T01:33:52.833Z,97562.64
2019-01-11T01:36:22.301Z,97562.37
2019-01-11T01:38:51.797Z,97561.28
2019-01-11T01:41:21.258Z,97565.36
2019-01-11T01:43:50.769Z,97564.64
2019-01-11T01:46:20.274Z,97570.17
2019-01-11T01:48:49.737Z,97571.78
2019-01-11T01:51:19.195Z,97576.75
2019-01-11T01:53:48.693Z,97569.39
2019-01-11T01:56:18.154Z,97565.53
2019-01-11T01:59:07.130Z,97561.73
2019-01-11T02:01:36.655Z,97563.53
2019-01-11T02:04:06.217Z,97563.01
2019-01-11T02:06:35.712Z,97569.89
2019-01-11T02:09:07.244Z,97566.81
2019-01-11T02:11:36.851Z,97568.38
2019-01-11T02:14:06.355Z,97570.27
2019-01-11T02:16:35.820Z,97574.66
2019-01-11T02:19:05.291Z,97555.67
2019-01-11T02:21:34.786Z,97561.06
2019-01-11T02:24:04.248Z,97557.90
2019-01-11T02:26:33.712Z,97562.45
2019-01-11T02:29:03.238Z,97563.19
2019-01-11T02:31:32.701Z,97562.88
2019-01-11T02:34:02.167Z,97568.27
2019-01-11T02:36:31.678Z,97559.21
2019-01-11T02:39:01.356Z,97565.94
2019-01-11T02:41:30.826Z,97564.63
2019-01-11T02:44:00.650Z,97564.38
2019-01-11T02:46:30.120Z,97549.70
2019-01-11T02:48:59.597Z,97563.17
2019-01-11T02:51:29.175Z,97564.15
2019-01-11T02:53:58.742Z,97561.95
2019-01-11T02:56:28.302Z,97557.06
2019-01-11T02:58:57.799Z,97562.70
2019-01-11T03:01:27.283Z,97565.25
2019-01-11T03:03:56.767Z,97558.97
2019-01-11T03:06:26.254Z,97566.40
2019-01-11T03:08:55.710Z,97558.84
2019-01-11T03:11:25.276Z,97558.73
2019-01-11T03:13:54.783Z,97562.06
2019-01-11T03:16:24.256Z,97562.23
2019-01-11T03:18:53.815Z,97561.75
2019-01-11T03:21:23.315Z,97568.03
2019-01-11T03:23:52.772Z,97569.16
2019-01-11T03:26:22.250Z,97564.42
2019-01-11T03:28:51.680Z,97564.23
2019-01-11T03:31:22.727Z,97572.24
2019-01-11T03:33:52.203Z,97575.80
2019-01-11T03:36:21.650Z,97579.02
2019-01-11T03:38:51.114Z,97575.02
2019-01-11T03:41:20.578Z,97576.55
2019-01-11T03:43:50.090Z,97572.15
2019-01-11T03:46:19.553Z,97576.16
2019-01-11T03:48:49.015Z,97582.52
2019-01-11T03:51:18.535Z,97575.35
2019-01-11T03:53:48.002Z,97581.56
2019-01-11T03:56:17.458Z,97579.36
2019-01-11T03:58:47.054Z,97581.92
2019-01-11T04:01:16.516Z,97586.41
2019-01-11T04:03:46.093Z,97583.34
2019-01-11T04:06:15.595Z,97583.83
2019-01-11T04:08:45.060Z,97591.67
2019-01-11T04:11:14.567Z,97589.03
2019-01-11T04:13:44.055Z,97593.98
2019-01-11T04:16:13.522Z,97590.22
2019-01-11T04:18:44.558Z,97591.69
2019-01-11T04:21:14.054Z,97594.13
2019-01-11T04:23:43.518Z,97587.16
2019-01-11T04:26:12.983Z,97590.08
2019-01-11T04:28:42.670Z,97597.88
2019-01-11T04:31:12.143Z,97597.62
2019-01-11T04:33:41.614Z,97592.84
2019-01-11T04:36:11.135Z,97595.50
2019-01-11T04:38:40.700Z,97599.89
2019-01-11T04:41:10.134Z,97606.53
2019-01-11T04:43:39.632Z,97613.28
2019-01-11T04:46:09.029Z,97613.31
2019-01-11T04:48:38.537Z,97617.34
2019-01-11T04:51:08.039Z,97623.27
2019-01-11T04:53:37.504Z,97621.48
2019-01-11T04:56:06.994Z,97627.92
2019-01-11T04:58:36.454Z,97628.73
2019-01-11T05:01:05.931Z,97629.48
2019-01-11T05:03:35.559Z,97629.48
2019-01-11T05:06:05.038Z,97631.51
2019-01-11T05:08:34.556Z,97629.87
2019-01-11T05:11:04.105Z,97639.83
2019-01-11T05:13:37.366Z,97635.06
2019-01-11T05:16:06.875Z,97638.16
2019-01-11T05:18:36.347Z,97644.30
2019-01-11T05:21:05.919Z,97646.41
2019-01-11T05:23:35.425Z,97648.33
2019-01-11T05:26:04.922Z,97648.84
2019-01-11T05:28:34.415Z,97651.75
2019-01-11T05:31:03.928Z,97658.38
2019-01-11T05:33:34.842Z,97657.25
2019-01-11T05:36:04.474Z,97653.31
2019-01-11T05:38:33.979Z,97654.85
2019-01-11T05:41:03.461Z,97664.87
2019-01-11T05:43:32.943Z,97661.22
2019-01-11T05:46:02.439Z,97660.77
2019-01-11T05:48:31.933Z,97660.29
2019-01-11T05:51:01.491Z,97657.80
2019-01-11T05:53:31.013Z,97661.47
2019-01-11T05:56:00.700Z,97657.21
2019-01-11T05:58:31.487Z,97659.19
2019-01-11T06:01:00.991Z,97662.95
2019-01-11T06:03:30.570Z,97661.94
2019-01-11T06:06:00.056Z,97664.27
2019-01-11T06:08:29.719Z,97664.98
2019-01-11T06:10:59.189Z,97669.78
2019-01-11T06:13:28.649Z,97668.85
2019-01-11T06:15:58.179Z,97670.19
2019-01-11T06:18:27.809Z,97670.15
2019-01-11T06:20:57.462Z,97665.48
2019-01-11T06:23:26.982Z,97659.44
2019-01-11T06:25:56.459Z,97666.50
2019-01-11T06:28:25.940Z,97673.47
2019-01-11T06:30:55.532Z,97669.71
2019-01-11T06:33:25.003Z,97677.27
2019-01-11T06:35:54.477Z,97681.67
2019-01-11T06:38:23.921Z,97684.93
2019-01-11T06:40:53.401Z,97684.09
2019-01-11T06:43:22.889Z,97685.73
2019-01-11T06:45:52.401Z,97686.27
2019-01-11T06:48:23.471Z,97691.95
2019-01-11T06:50:53.241Z,97692.85
2019-01-11T06:53:22.659Z,97694.69
2019-01-11T06:55:52.119Z,97700.82
2019-01-11T06:58:21.659Z,97701.80
2019-01-11T07:00:51.166Z,97702.28
2019-01-11T07:03:21.768Z,97706.14
2019-01-11T07:05:51.340Z,97710.64
2019-01-11T07:08:20.840Z,97717.78
2019-01-11T07:10:50.315Z,97711.42
2019-01-11T07:13:19.880Z,97714.45
2019-01-11T07:15:49.414Z,97713.60
2019-01-11T07:18:18.878Z,97716.11
2019-01-11T07:20:48.359Z,97718.77
2019-01-11T07:23:17.871Z,97724.05
2019-01-11T07:25:47.778Z,97724.85
2019-01-11T07:28:17.615Z,97725.70
2019-01-11T07:30:51.995Z,97724.13
2019-01-11T07:33:23.225Z,97729.11
2019-01-11T07:35:54.467Z,97735.50
2019-01-11T07:38:23.951Z,97734.20
2019-01-11T07:40:53.439Z,97733.53
2019-01-11T07:43:22.925Z,97734.47
2019-01-11T07:45:52.435Z,97735.58
2019-01-11T07:48:21.907Z,97739.26
2019-01-11T07:50:51.388Z,97741.61
2019-01-11T07:53:20.881Z,97739.29
2019-01-11T07:55:50.384Z,97740.06
2019-01-11T07:58:19.888Z,97743.98
2019-01-11T08:00:49.391Z,97739.78
2019-01-11T08:03:18.877Z,97738.45
2019-01-11T08:05:48.363Z,97741.59
2019-01-11T08:08:17.874Z,97743.48
2019-01-11T08:10:47.351Z,97742.27
2019-01-11T08:13:16.789Z,97744.02
2019-01-11T08:15:46.329Z,97739.57
2019-01-11T08:18:15.758Z,97745.84
2019-01-11T08:20:45.246Z,97744.69
2019-01-11T08:23:14.753Z,97749.66
2019-01-11T08:25:44.268Z,97750.84
2019-01-11T08:28:13.978Z,97749.03
2019-01-11T08:30:43.476Z,97762.75
2019-01-11T08:33:18.551Z,97757.50
2019-01-11T08:35:44.161Z,97770.56
2019-01-11T08:38:13.651Z,97765.86
2019-01-11T08:40:43.121Z,97765.04
2019-01-11T08:43:12.590Z,97768.77
2019-01-11T08:45:42.147Z,97773.27
2019-01-11T08:48:11.599Z,97773.17
2019-01-11T08:50:41.060Z,97775.22
2019-01-11T08:53:10.560Z,97777.63
2019-01-11T08:55:40.025Z,97780.78
2019-01-11T08:58:09.611Z,97784.13
2019-01-11T09:00:39.109Z,97783.43
2019-01-11T09:03:08.574Z,97786.02
2019-01-11T09:05:37.981Z,97780.79
2019-01-11T09:08:07.481Z,97789.33
2019-01-11T09:10:36.953Z,97781.80
2019-01-11T09:13:06.415Z,97783.74
2019-01-11T09:15:36.008Z,97783.76
2019-01-11T09:18:12.981Z,97782.56
2019-01-11T09:20:42.792Z,97787.17
2019-01-11T09:23:12.263Z,97793.14
2019-01-11T09:25:41.728Z,97790.90
2019-01-11T09:28:11.222Z,97788.97
2019-01-11T09:30:40.617Z,97792.89
2019-01-11T09:33:10.096Z,97795.15
2019-01-11T09:35:39.589Z,97794.38
2019-01-11T09:38:09.078Z,97802.25
2019-01-11T09:40:38.612Z,97796.26
2019-01-11T09:43:08.108Z,97791.44
2019-01-11T09:45:37.686Z,97794.59
2019-01-11T09:48:07.156Z,97789.77
2019-01-11T09:50:36.663Z,97792.29
2019-01-11T09:53:06.130Z,97790.33
2019-01-11T09:55:35.608Z,97784.17
2019-01-11T09:58:05.086Z,97783.80
2019-01-11T10:00:34.551Z,97787.31
2019-01-11T10:03:05.414Z,97786.66
2019-01-11T10:05:34.918Z,97778.69
2019-01-11T10:08:04.386Z,97781.34
2019-01-11T10:10:53.271Z,97773.36
2019-01-11T10:13:22.724Z,97771.81
2019-01-11T10:15:52.187Z,97769.66
2019-01-11T10:18:21.709Z,97762.42
2019-01-11T10:20:51.677Z,97768.70
2019-01-11T10:23:21.151Z,97772.77
2019-01-11T10:25:50.643Z,97768.66
2019-01-11T10:28:20.107Z,97757.64
2019-01-11T10:30:49.577Z,97758.44
2019-01-11T10:33:19.066Z,97761.02
2019-01-11T10:35:49.423Z,97757.19
2019-01-11T10:38:18.895Z,97753.09
2019-01-11T10:40:48.378Z,97748.81
2019-01-11T10:43:17.963Z,97748.42
2019-01-11T10:45:47.421Z,97746.21
2019-01-11T10:48:16.986Z,97753.72
2019-01-11T10:50:46.518Z,97739.54
2019-01-11T10:53:16.029Z,97754.70
2019-01-11T10:55:45.573Z,97757.16
2019-01-11T10:58:15.048Z,97753.13
2019-01-11T11:00:44.518Z,97748.09
2019-01-11T11:03:14.147Z,97749.72
2019-01-11T11:05:43.606Z,97740.09
2019-01-11T11:08:13.085Z,97735.58
2019-01-11T11:10:42.952Z,97737.41
2019-01-11T11:13:12.434Z,97738.59
2019-01-11T11:15:43.614Z,97732.78
2019-01-11T11:18:13.097Z,97730.66
2019-01-11T11:20:42.568Z,97728.30
2019-01-11T11:23:12.030Z,97725.30
2019-01-11T11:25:41.531Z,97720.33
2019-01-11T11:28:11.000Z,97711.98
2019-01-11T11:30:40.474Z,97711.55
2019-01-11T11:33:09.985Z,97713.55
2019-01-11T11:35:39.475Z,97706.44
2019-01-11T11:38:08.959Z,97695.98
2019-01-11T11:40:38.474Z,97702.03
2019-01-11T11:43:07.952Z,97692.84
2019-01-11T11:45:37.439Z,97694.48
2019-01-11T11:48:06.938Z,97704.68
2019-01-11T11:50:36.406Z,97705.13
2019-01-11T11:53:05.910Z,97704.30
2019-01-11T11:55:35.385Z,97708.09
2019-01-11T11:58:04.863Z,97710.09
2019-01-11T12:00:34.385Z,97702.07
2019-01-11T12:03:03.874Z,97699.73
2019-01-11T12:05:33.328Z,97698.48
2019-01-11T12:08:02.755Z,97691.23
2019-01-11T12:10:32.348Z,97693.27
2019-01-11T12:13:01.880Z,97688.25
2019-01-11T12:15:31.387Z,97687.07
2019-01-11T12:18:00.955Z,97692.33
2019-01-11T12:20:30.431Z,97690.86
2019-01-11T12:22:59.931Z,97686.05
2019-01-11T12:25:29.415Z,97690.52
2019-01-11T12:27:58.897Z,97682.63
2019-01-11T12:30:28.387Z,97678.30
2019-01-11T12:32:58.027Z,97672.19
2019-01-11T12:35:27.503Z,97674.41
2019-01-11T12:37:56.991Z,97674.80
2019-01-11T12:40:26.449Z,97673.45
2019-01-11T12:42:55.948Z,97667.19
2019-01-11T12:45:25.425Z,97671.79
2019-01-11T12:47:54.906Z,97659.91
2019-01-11T12:50:25.187Z,97662.14
2019-01-11T12:52:54.680Z,97662.32
2019-01-11T12:55:43.539Z,97657.40
2019-01-11T12:58:13.015Z,97666.00
2019-01-11T13:00:42.487Z,97660.81
2019-01-11T13:03:11.991Z,97661.94
2019-01-11T13:05:41.461Z,97665.09
2019-01-11T13:08:10.940Z,97661.34
2019-01-11T13:10:40.510Z,97659.39
2019-01-11T13:13:09.972Z,97665.44
2019-01-11T13:15:39.444Z,97656.38
2019-01-11T13:18:08.954Z,97651.60
2019-01-11T13:20:38.427Z,97648.94
2019-01-11T13:23:07.894Z,97643.45
2019-01-11T13:25:37.408Z,97650.54
2019-01-11T13:28:06.879Z,97644.77
2019-01-11T13:30:36.355Z,97642.40
2019-01-11T13:33:05.842Z,97645.16
2019-01-11T13:35:35.309Z,97635.75
2019-01-11T13:38:04.863Z,97634.42
2019-01-11T13:40:34.373Z,97642.99
2019-01-11T13:43:03.844Z,97637.11
2019-01-11T13:45:33.312Z,97635.55
2019-01-11T13:48:02.827Z,97633.50
2019-01-11T13:50:38.966Z,97632.59
2019-01-11T13:53:09.268Z,97629.89
2019-01-11T13:55:38.755Z,97638.02
2019-01-11T13:58:08.239Z,97633.23
2019-01-11T14:00:37.742Z,97640.43
2019-01-11T14:03:07.216Z,97641.08
2019-01-11T14:05:36.680Z,97639.77
2019-01-11T14:08:06.172Z,97644.38
2019-01-11T14:10:35.654Z,97644.20
2019-01-11T14:13:05.128Z,97645.39
2019-01-11T14:15:34.624Z,97640.77
2019-01-11T14:18:04.114Z,97641.44
2019-01-11T14:20:33.579Z,97640.84
2019-01-11T14:23:03.074Z,97649.13
2019-01-11T14:25:32.542Z,97650.37
2019-01-11T14:28:02.031Z,97646.08
2019-01-11T14:30:31.587Z,97648.81
2019-01-11T14:33:01.061Z,97638.91
2019-01-11T14:35:30.555Z,97642.83
2019-01-11T14:38:00.066Z,97640.66
2019-01-11T14:40:29.536Z,97640.86
2019-01-11T14:42:59.118Z,97638.15
2019-01-11T14:45:28.641Z,97644.94
2019-01-11T14:47:58.106Z,97640.88
2019-01-11T14:50:27.573Z,97644.48
2019-01-11T14:52:57.003Z,97640.30
2019-01-11T14:55:26.469Z,97643.58
2019-01-11T14:57:56.051Z,97643.80
2019-01-11T15:00:25.550Z,97651.86
2019-01-11T15:02:55.115Z,97648.54
2019-01-11T15:05:24.598Z,97651.66
2019-01-11T15:07:54.156Z,97657.22
2019-01-11T15:10:23.635Z,97657.11
2019-01-11T15:12:53.104Z,97654.52
2019-01-11T15:15:22.608Z,97657.05
2019-01-11T15:17:52.070Z,97661.81
2019-01-11T15:20:21.562Z,97663.52
2019-01-11T15:22:51.032Z,97664.67
2019-01-11T15:25:20.543Z,97664.50
2019-01-11T15:27:50.019Z,97663.92
2019-01-11T15:30:20.176Z,97666.04
2019-01-11T15:32:49.741Z,97665.09
2019-01-11T15:35:19.198Z,97672.69
2019-01-11T15:37:48.668Z,97668.66
2019-01-11T15:40:24.151Z,97666.71
2019-01-11T15:42:53.597Z,97671.73
2019-01-11T15:45:23.073Z,97669.50
2019-01-11T15:47:52.575Z,97675.36
2019-01-11T15:50:45.080Z,97673.07
2019-01-11T15:53:14.565Z,97675.08
2019-01-11T15:55:44.026Z,97669.95
2019-01-11T15:58:13.516Z,97668.55
2019-01-11T16:00:48.672Z,97670.42
2019-01-11T16:03:18.142Z,97673.00
2019-01-11T16:05:47.613Z,97666.02
2019-01-11T16:08:17.107Z,97663.45
2019-01-11T16:11:15.039Z,97670.88
2019-01-11T16:14:14.797Z,97667.47
2019-01-11T16:16:44.256Z,97668.95
2019-01-11T16:19:13.721Z,97669.70
2019-01-11T16:21:43.217Z,97670.20
2019-01-11T16:24:12.792Z,97663.91
2019-01-11T16:26:42.349Z,97667.66
2019-01-11T16:29:11.840Z,97666.23
2019-01-11T16:31:41.313Z,97667.50
2019-01-11T16:34:10.776Z,97666.76
2019-01-11T16:36:40.301Z,97664.27
2019-01-11T16:39:09.752Z,97660.13
2019-01-11T16:41:39.218Z,97669.33
2019-01-11T16:44:08.722Z,97667.51
2019-01-11T16:46:38.200Z,97667.41
2019-01-11T16:49:07.662Z,97669.08
2019-01-11T16:51:37.177Z,97676.80
2019-01-11T16:54:06.697Z,97681.75
2019-01-11T16:56:36.160Z,97673.39
2019-01-11T16:59:05.659Z,97670.39
2019-01-11T17:01:35.138Z,97672.88
2019-01-11T17:04:05.432Z,97677.37
2019-01-11T17:06:34.891Z,97677.91
2019-01-11T17:09:07.075Z,97681.73
2019-01-11T17:11:36.599Z,97681.59
2019-01-11T17:14:06.691Z,97676.59
2019-01-11T17:16:36.269Z,97679.50
2019-01-11T17:19:05.842Z,97684.07
2019-01-11T17:21:35.336Z,97685.44
2019-01-11T17:24:04.926Z,97683.70
2019-01-11T17:26:34.379Z,97681.65
2019-01-11T17:29:03.906Z,97679.75
2019-01-11T17:31:33.362Z,97688.14
2019-01-11T17:34:02.842Z,97683.14
2019-01-11T17:36:32.453Z,97685.70
2019-01-11T17:39:02.082Z,97690.63
2019-01-11T17:41:31.591Z,97693.32
2019-01-11T17:44:01.043Z,97690.13
2019-01-11T17:46:30.521Z,97688.63
2019-01-11T17:49:00.019Z,97674.65
2019-01-11T17:51:29.487Z,97678.70
2019-01-11T17:53:58.963Z,97687.99
2019-01-11T17:56:28.503Z,97679.34
2019-01-11T17:58:58.014Z,97685.38
2019-01-11T18:01:27.875Z,97684.44
2019-01-11T18:03:57.382Z,97687.84
2019-01-11T18:06:26.846Z,97689.20
2019-01-11T18:08:56.329Z,97689.64
2019-01-11T18:11:25.809Z,97691.48
2019-01-11T18:13:55.282Z,97684.43
2019-01-11T18:16:24.773Z,97686.08
2019-01-11T18:19:15.179Z,97678.50
2019-01-11T18:21:44.663Z,97675.36
2019-01-11T18:24:14.144Z,97670.81
2019-01-11T18:26:43.647Z,97668.95
2019-01-11T18:29:13.104Z,97669.17
2019-01-11T18:31:42.591Z,97671.69
2019-01-11T18:34:12.092Z,97677.15
2019-01-11T18:36:41.703Z,97676.56
2019-01-11T18:39:11.177Z,97675.76
2019-01-11T18:41:40.680Z,97672.27
2019-01-11T18:44:10.150Z,97672.17
2019-01-11T18:46:39.622Z,97676.78
2019-01-11T18:49:09.127Z,97677.34
2019-01-11T18:51:38.597Z,97673.37
2019-01-11T18:54:08.103Z,97674.15
2019-01-11T18:56:37.629Z,97677.19
2019-01-11T18:59:07.102Z,97678.52
2019-01-11T19:01:36.601Z,97679.91
2019-01-11T19:04:06.164Z,97668.45
2019-01-11T19:06:35.649Z,97664.45
2019-01-11T19:09:08.128Z,97667.09
2019-01-11T19:11:37.618Z,97667.45
2019-01-11T19:14:07.086Z,97663.48
2019-01-11T19:16:36.553Z,97663.53
2019-01-11T19:19:06.055Z,97663.05
2019-01-11T19:21:35.539Z,97662.83
2019-01-11T19:24:05.041Z,97669.66
2019-01-11T19:26:34.514Z,97667.66
2019-01-11T19:29:03.995Z,97669.34
2019-01-11T19:31:33.515Z,97667.91
2019-01-11T19:34:03.013Z,97670.30
2019-01-11T19:36:32.476Z,97673.37
2019-01-11T19:39:02.170Z,97668.13
2019-01-11T19:41:31.653Z,97667.20
2019-01-11T19:44:01.129Z,97669.48
2019-01-11T19:46:30.643Z,97662.43
2019-01-11T19:49:00.202Z,97660.75
2019-01-11T19:51:29.706Z,97655.80
2019-01-11T19:53:59.201Z,97657.76
2019-01-11T19:56:29.664Z,97657.08
2019-01-11T19:58:59.139Z,97654.69
2019-01-11T20:01:28.749Z,97650.19
2019-01-11T20:03:58.342Z,97648.22
2019-01-11T20:06:27.861Z,97649.31
2019-01-11T20:08:57.348Z,97645.59
2019-01-11T20:11:26.849Z,97644.18
2019-01-11T20:13:56.350Z,97649.07
2019-01-11T20:16:25.858Z,97650.07
2019-01-11T20:18:55.308Z,97644.38
2019-01-11T20:21:24.773Z,97645.97
2019-01-11T20:23:54.280Z,97640.45
2019-01-11T20:26:23.760Z,97642.47
2019-01-11T20:28:53.247Z,97642.19
2019-01-11T20:31:22.757Z,97638.58
2019-01-11T20:33:52.329Z,97634.55
2019-01-11T20:36:21.896Z,97628.78
2019-01-11T20:38:51.416Z,97631.86
2019-01-11T20:41:20.905Z,97634.62
2019-01-11T20:43:50.412Z,97629.85
2019-01-11T20:46:19.876Z,97629.02
2019-01-11T20:48:49.430Z,97619.89
2019-01-11T20:51:18.871Z,97612.99
2019-01-11T20:53:48.374Z,97617.08
2019-01-11T20:56:17.950Z,97609.59
2019-01-11T20:58:47.414Z,97611.68
2019-01-11T21:01:17.749Z,97609.11
2019-01-11T21:03:47.216Z,97600.81
2019-01-11T21:06:16.684Z,97600.37
2019-01-11T21:08:46.279Z,97596.33
2019-01-11T21:11:15.752Z,97598.57
2019-01-11T21:13:45.268Z,97601.77
2019-01-11T21:16:14.775Z,97592.03
2019-01-11T21:18:44.339Z,97592.87
2019-01-11T21:21:13.822Z,97589.59
2019-01-11T21:23:48.650Z,97590.20
2019-01-11T21:26:14.710Z,97589.64
2019-01-11T21:28:44.176Z,97591.91
2019-01-11T21:31:13.771Z,97594.51
2019-01-11T21:33:43.259Z,97583.97
2019-01-11T21:36:12.879Z,97574.41
2019-01-11T21:38:42.415Z,97575.39
2019-01-11T21:41:11.863Z,97574.11
2019-01-11T21:43:41.395Z,97571.98
2019-01-11T21:46:10.898Z,97573.09
2019-01-11T21:48:40.388Z,97574.93
2019-01-11T21:51:09.873Z,97570.27
2019-01-11T21:53:39.353Z,97571.42
2019-01-11T21:56:08.764Z,97569.47
2019-01-11T21:58:38.247Z,97567.07
2019-01-11T22:01:07.750Z,97564.11
2019-01-11T22:03:37.234Z,97562.78
2019-01-11T22:06:06.701Z,97559.98
2019-01-11T22:08:36.329Z,97551.61
2019-01-11T22:11:05.847Z,97546.61
2019-01-11T22:13:35.287Z,97538.80
2019-01-11T22:16:04.797Z,97539.23
2019-01-11T22:18:34.254Z,97540.23
2019-01-11T22:21:03.739Z,97529.96
2019-01-11T22:23:33.229Z,97524.32
2019-01-11T22:26:02.694Z,97520.48
2019-01-11T22:28:32.178Z,97513.44
2019-01-11T22:31:01.685Z,97509.70
2019-01-11T22:33:31.166Z,97509.11
2019-01-11T22:36:00.664Z,97511.41
2019-01-11T22:38:30.073Z,97499.02
2019-01-11T22:40:59.544Z,97497.08
2019-01-11T22:43:29.029Z,97497.69
2019-01-11T22:45:58.495Z,97493.66
2019-01-11T22:48:27.999Z,97488.30
2019-01-11T22:50:57.469Z,97493.15
2019-01-11T22:53:26.939Z,97490.27
2019-01-11T22:55:56.451Z,97482.09
2019-01-11T22:58:25.945Z,97478.28
2019-01-11T23:01:03.351Z,97487.84
2019-01-11T23:03:37.550Z,97486.64
2019-01-11T23:06:23.770Z,97480.44
2019-01-11T23:08:53.412Z,97472.22
2019-01-11T23:11:54.146Z,97477.78
2019-01-11T23:14:23.729Z,97482.55
2019-01-11T23:16:57.407Z,97472.39
2019-01-11T23:19:26.884Z,97476.34
2019-01-11T23:21:56.459Z,97468.47
2019-01-11T23:24:25.928Z,97465.38
2019-01-11T23:26:55.390Z,97465.86
2019-01-11T23:29:24.892Z,97461.13
2019-01-11T23:31:54.364Z,97455.15
2019-01-11T23:34:23.849Z,97451.67
2019-01-11T23:36:53.345Z,97449.22
2019-01-11T23:39:22.842Z,97446.36
2019-01-11T23:41:52.328Z,97447.28
2019-01-11T23:44:21.802Z,97446.64
2019-01-11T23:46:51.295Z,97445.89
2019-01-11T23:49:20.902Z,97443.68
2019-01-11T23:51:52.293Z,97439.78
2019-01-11T23:54:24.629Z,97439.95
2019-01-11T23:56:52.988Z,97441.49
2019-01-11T23:59:22.573Z,97442.09
